createdAt,value
2022-09-29T00:00:56.138Z,10.60
2022-09-29T00:03:23.990Z,10.60
2022-09-29T00:05:54.026Z,10.60
2022-09-29T00:08:24.561Z,10.60
2022-09-29T00:10:52.134Z,10.60
2022-09-29T00:13:19.744Z,10.60
2022-09-29T00:15:59.218Z,10.50
2022-09-29T00:18:27.642Z,10.50
2022-09-29T00:21:06.805Z,10.60
2022-09-29T00:23:35.754Z,10.60
2022-09-29T00:26:09.746Z,10.60
2022-09-29T00:28:39.642Z,10.50
2022-09-29T00:31:10.791Z,10.50
2022-09-29T00:33:39.478Z,10.50
2022-09-29T00:36:15.920Z,10.60
2022-09-29T00:38:44.898Z,10.60
2022-09-29T00:41:27.062Z,10.60
2022-09-29T00:44:12.480Z,10.60
2022-09-29T00:46:55.390Z,10.60
2022-09-29T00:49:37.912Z,10.60
2022-09-29T00:52:23.373Z,10.60
2022-09-29T00:54:55.930Z,10.60
2022-09-29T00:57:29.229Z,10.60
2022-09-29T01:00:12.796Z,10.60
2022-09-29T01:02:46.469Z,10.60
2022-09-29T01:05:21.047Z,10.60
2022-09-29T01:07:48.793Z,10.70
2022-09-29T01:10:17.595Z,10.70
2022-09-29T01:12:48.294Z,10.70
2022-09-29T01:15:19.502Z,10.70
2022-09-29T01:17:47.754Z,10.80
2022-09-29T01:20:22.169Z,10.80
2022-09-29T01:23:17.385Z,10.80
2022-09-29T01:26:03.780Z,10.80
2022-09-29T01:28:57.963Z,10.80
2022-09-29T01:31:59.753Z,10.80
2022-09-29T01:34:36.519Z,10.80
2022-09-29T01:37:41.327Z,10.80
2022-09-29T01:40:16.214Z,10.80
2022-09-29T01:43:00.763Z,10.80
2022-09-29T01:45:36.031Z,10.80
2022-09-29T01:48:09.149Z,10.80
2022-09-29T01:50:42.164Z,10.80
2022-09-29T01:53:15.653Z,10.80
2022-09-29T01:55:53.770Z,10.80
2022-09-29T01:58:32.573Z,10.80
2022-09-29T02:01:06.923Z,10.80
2022-09-29T02:03:47.748Z,10.80
2022-09-29T02:06:24.578Z,10.90
2022-09-29T02:08:57.142Z,10.90
2022-09-29T02:11:26.773Z,10.90
2022-09-29T02:14:01.881Z,10.90
2022-09-29T02:16:31.679Z,10.90
2022-09-29T02:19:03.396Z,10.90
2022-09-29T02:21:30.822Z,11.00
2022-09-29T02:23:58.337Z,11.00
2022-09-29T02:26:31.874Z,11.00
2022-09-29T02:29:01.948Z,10.90
2022-09-29T02:31:31.041Z,11.00
2022-09-29T02:33:59.125Z,11.00
2022-09-29T02:37:00.171Z,11.00
2022-09-29T02:39:44.361Z,11.00
2022-09-29T02:42:19.769Z,11.00
2022-09-29T02:44:50.305Z,11.00
2022-09-29T02:47:27.165Z,11.00
2022-09-29T02:50:29.861Z,11.00
2022-09-29T02:53:09.258Z,11.00
2022-09-29T02:55:44.608Z,11.00
2022-09-29T02:58:20.942Z,11.00
2022-09-29T03:00:49.050Z,10.90
2022-09-29T03:03:16.843Z,10.90
2022-09-29T03:05:44.440Z,10.90
2022-09-29T03:08:11.893Z,10.90
2022-09-29T03:10:39.436Z,10.90
2022-09-29T03:13:06.880Z,10.80
2022-09-29T03:15:34.403Z,10.80
2022-09-29T03:18:06.033Z,10.70
2022-09-29T03:20:35.775Z,10.70
2022-09-29T03:23:03.462Z,10.70
2022-09-29T03:25:31.070Z,10.70
2022-09-29T03:27:59.734Z,10.70
2022-09-29T03:30:27.505Z,10.70
2022-09-29T03:32:55.124Z,10.70
2022-09-29T03:35:22.613Z,10.70
2022-09-29T03:37:50.086Z,10.60
2022-09-29T03:40:17.847Z,10.60
2022-09-29T03:42:47.262Z,10.50
2022-09-29T03:45:14.921Z,10.50
2022-09-29T03:47:42.431Z,10.50
2022-09-29T03:50:10.613Z,10.50
2022-09-29T03:52:38.125Z,10.40
2022-09-29T03:55:06.157Z,10.50
2022-09-29T03:57:33.640Z,10.50
2022-09-29T04:00:01.436Z,10.50
2022-09-29T04:02:29.082Z,10.50
2022-09-29T04:04:56.641Z,10.50
2022-09-29T04:07:24.265Z,10.50
2022-09-29T04:09:51.727Z,10.50
2022-09-29T04:12:19.308Z,10.50
2022-09-29T04:14:46.754Z,10.50
2022-09-29T04:17:14.293Z,10.50
2022-09-29T04:19:41.764Z,10.50
2022-09-29T04:22:09.770Z,10.50
2022-09-29T04:24:37.270Z,10.50
2022-09-29T04:27:04.805Z,10.40
2022-09-29T04:29:32.311Z,10.40
2022-09-29T04:31:59.952Z,10.40
2022-09-29T04:34:27.696Z,10.40
2022-09-29T04:36:55.168Z,10.40
2022-09-29T04:39:22.766Z,10.40
2022-09-29T04:41:50.331Z,10.50
2022-09-29T04:44:20.243Z,10.40
2022-09-29T04:46:52.681Z,10.40
2022-09-29T04:49:20.503Z,10.40
2022-09-29T04:51:48.394Z,10.30
2022-09-29T04:54:16.077Z,10.30
2022-09-29T04:56:43.583Z,10.20
2022-09-29T04:59:11.125Z,10.10
2022-09-29T05:01:38.607Z,10.10
2022-09-29T05:04:07.649Z,10.00
2022-09-29T05:06:39.340Z,10.00
2022-09-29T05:09:07.577Z,9.90
2022-09-29T05:11:35.680Z,9.90
2022-09-29T05:14:03.734Z,9.80
2022-09-29T05:16:31.869Z,9.80
2022-09-29T05:18:59.758Z,9.70
2022-09-29T05:21:28.868Z,9.70
2022-09-29T05:23:57.855Z,9.60
2022-09-29T05:26:25.934Z,9.50
2022-09-29T05:28:53.446Z,9.50
2022-09-29T05:31:20.997Z,9.50
2022-09-29T05:33:48.612Z,9.50
2022-09-29T05:36:16.212Z,9.40
2022-09-29T05:38:43.758Z,9.30
2022-09-29T05:41:12.780Z,9.40
2022-09-29T05:43:40.985Z,9.30
2022-09-29T05:46:11.009Z,9.30
2022-09-29T05:48:38.876Z,9.20
2022-09-29T05:51:22.449Z,9.30
2022-09-29T05:53:50.879Z,9.20
2022-09-29T05:56:21.384Z,9.20
2022-09-29T05:58:48.961Z,9.20
2022-09-29T06:01:20.718Z,9.20
2022-09-29T06:03:48.443Z,9.20
2022-09-29T06:06:19.674Z,9.20
2022-09-29T06:08:48.254Z,9.20
2022-09-29T06:11:16.929Z,9.20
2022-09-29T06:13:49.686Z,9.20
2022-09-29T06:16:20.081Z,9.20
2022-09-29T06:18:48.694Z,9.20
2022-09-29T06:21:18.818Z,9.10
2022-09-29T06:23:46.957Z,9.20
2022-09-29T06:26:20.162Z,9.20
2022-09-29T06:28:50.655Z,9.20
2022-09-29T06:31:21.288Z,9.30
2022-09-29T06:33:49.173Z,9.30
2022-09-29T06:36:41.867Z,9.30
2022-09-29T06:39:13.266Z,9.40
2022-09-29T06:41:41.927Z,9.50
2022-09-29T06:44:09.489Z,9.50
2022-09-29T06:46:37.162Z,9.50
2022-09-29T06:49:04.821Z,9.60
2022-09-29T06:51:43.684Z,9.60
2022-09-29T06:54:15.171Z,9.50
2022-09-29T06:56:43.205Z,9.50
2022-09-29T06:59:10.777Z,9.50
2022-09-29T07:01:38.439Z,9.40
2022-09-29T07:04:06.045Z,9.50
2022-09-29T07:06:33.637Z,9.50
2022-09-29T07:09:01.430Z,9.40
2022-09-29T07:11:29.139Z,9.50
2022-09-29T07:13:56.702Z,9.50
2022-09-29T07:16:24.772Z,9.50
2022-09-29T07:18:52.976Z,9.50
2022-09-29T07:21:22.231Z,9.60
2022-09-29T07:23:50.098Z,9.70
2022-09-29T07:26:18.101Z,9.80
2022-09-29T07:28:47.146Z,9.90
2022-09-29T07:31:20.220Z,10.00
2022-09-29T07:33:49.989Z,10.10
2022-09-29T07:36:19.933Z,10.20
2022-09-29T07:38:52.119Z,10.30
2022-09-29T07:41:21.918Z,10.30
2022-09-29T07:43:49.595Z,10.30
2022-09-29T07:46:17.354Z,10.30
2022-09-29T07:48:45.001Z,10.40
2022-09-29T07:51:18.278Z,10.40
2022-09-29T07:53:46.883Z,10.60
2022-09-29T07:56:20.124Z,10.80
2022-09-29T07:58:49.932Z,11.10
2022-09-29T08:01:19.658Z,11.50
2022-09-29T08:03:55.622Z,11.90
2022-09-29T08:06:24.556Z,12.30
2022-09-29T08:09:02.610Z,12.70
2022-09-29T08:11:34.330Z,13.10
2022-09-29T08:14:01.881Z,13.50
2022-09-29T08:16:30.393Z,13.90
2022-09-29T08:18:58.861Z,14.20
2022-09-29T08:21:27.020Z,14.50
2022-09-29T08:23:54.493Z,14.90
2022-09-29T08:26:36.194Z,15.30
2022-09-29T08:29:08.779Z,15.70
2022-09-29T08:31:40.182Z,15.80
2022-09-29T08:34:07.939Z,16.10
2022-09-29T08:36:36.720Z,16.40
2022-09-29T08:39:04.474Z,17.00
2022-09-29T08:41:54.775Z,17.50
2022-09-29T08:44:37.769Z,17.90
2022-09-29T08:47:20.598Z,17.80
2022-09-29T08:49:55.376Z,17.60
2022-09-29T08:52:38.615Z,17.20
2022-09-29T08:55:21.591Z,16.80
2022-09-29T08:57:58.912Z,16.30
2022-09-29T09:01:04.249Z,15.80
2022-09-29T09:04:12.677Z,15.30
2022-09-29T09:07:21.450Z,15.00
2022-09-29T09:10:03.589Z,14.60
2022-09-29T09:12:53.435Z,14.50
2022-09-29T09:15:39.299Z,15.00
2022-09-29T09:18:25.168Z,16.00
2022-09-29T09:21:42.614Z,17.20
2022-09-29T09:24:24.898Z,18.40
2022-09-29T09:26:52.877Z,19.30
2022-09-29T09:29:37.681Z,19.60
2022-09-29T09:32:17.345Z,20.00
2022-09-29T09:34:51.954Z,20.40
2022-09-29T09:37:22.075Z,20.70
2022-09-29T09:39:56.702Z,21.00
2022-09-29T09:42:35.565Z,21.50
2022-09-29T09:45:14.691Z,21.70
2022-09-29T09:47:59.830Z,21.80
2022-09-29T09:50:28.454Z,21.70
2022-09-29T09:53:04.461Z,22.00
2022-09-29T09:55:36.924Z,22.50
2022-09-29T09:58:16.482Z,23.10
2022-09-29T10:00:53.292Z,23.70
2022-09-29T10:03:21.092Z,24.20
2022-09-29T10:05:49.683Z,24.70
2022-09-29T10:08:29.657Z,25.00
2022-09-29T10:10:59.692Z,25.20
2022-09-29T10:13:29.663Z,25.30
2022-09-29T10:16:08.324Z,25.30
2022-09-29T10:18:52.705Z,25.10
2022-09-29T10:21:32.525Z,24.10
2022-09-29T10:24:01.352Z,23.00
2022-09-29T10:26:40.455Z,22.30
2022-09-29T10:29:23.551Z,21.70
2022-09-29T10:32:08.114Z,21.10
2022-09-29T10:34:42.933Z,20.50
2022-09-29T10:37:24.216Z,20.60
2022-09-29T10:40:01.998Z,20.70
2022-09-29T10:42:36.122Z,20.70
2022-09-29T10:45:26.656Z,20.70
2022-09-29T10:48:04.294Z,21.30
2022-09-29T10:50:53.649Z,21.90
2022-09-29T10:53:38.742Z,22.60
2022-09-29T10:56:16.946Z,23.70
2022-09-29T10:59:00.339Z,23.90
2022-09-29T11:01:35.452Z,23.90
2022-09-29T11:04:33.619Z,24.40
2022-09-29T11:07:10.495Z,24.70
2022-09-29T11:09:44.501Z,24.90
2022-09-29T11:12:41.118Z,25.10
2022-09-29T11:15:25.185Z,26.00
2022-09-29T11:17:53.238Z,26.80
2022-09-29T11:20:25.354Z,27.40
2022-09-29T11:23:01.530Z,27.50
2022-09-29T11:25:57.787Z,26.80
2022-09-29T11:28:47.158Z,25.50
2022-09-29T11:31:39.841Z,23.90
2022-09-29T11:34:28.973Z,22.80
2022-09-29T11:37:07.131Z,21.80
2022-09-29T11:40:02.102Z,21.20
2022-09-29T11:42:32.696Z,20.70
2022-09-29T11:45:07.314Z,20.40
2022-09-29T11:47:56.774Z,20.00
2022-09-29T11:50:39.089Z,19.60
2022-09-29T11:53:12.132Z,19.30
2022-09-29T11:55:58.465Z,19.00
2022-09-29T11:58:47.030Z,18.70
2022-09-29T12:01:21.357Z,18.40
2022-09-29T12:04:26.388Z,18.10
2022-09-29T12:07:03.963Z,17.80
2022-09-29T12:09:50.074Z,17.50
2022-09-29T12:12:42.425Z,17.30
2022-09-29T12:15:13.283Z,17.10
2022-09-29T12:17:45.671Z,17.10
2022-09-29T12:20:29.394Z,16.90
2022-09-29T12:23:05.786Z,16.80
2022-09-29T12:25:41.085Z,16.70
2022-09-29T12:28:19.960Z,16.60
2022-09-29T12:30:54.848Z,16.60
2022-09-29T12:34:00.111Z,16.70
2022-09-29T12:36:44.390Z,16.80
2022-09-29T12:39:41.392Z,17.00
2022-09-29T12:42:39.712Z,17.90
2022-09-29T12:45:16.078Z,18.70
2022-09-29T12:48:05.921Z,19.10
2022-09-29T12:50:52.483Z,19.50
2022-09-29T12:53:34.825Z,19.90
2022-09-29T12:56:12.933Z,20.50
2022-09-29T12:59:09.541Z,21.10
2022-09-29T13:01:38.545Z,21.40
2022-09-29T13:04:27.657Z,21.50
2022-09-29T13:07:25.964Z,21.50
2022-09-29T13:10:15.487Z,21.40
2022-09-29T13:12:46.077Z,21.00
2022-09-29T13:15:19.299Z,20.50
2022-09-29T13:18:02.254Z,20.00
2022-09-29T13:21:06.813Z,19.50
2022-09-29T13:23:43.090Z,19.00
2022-09-29T13:26:38.419Z,18.50
2022-09-29T13:29:23.873Z,18.20
2022-09-29T13:31:53.066Z,17.90
2022-09-29T13:34:46.751Z,17.80
2022-09-29T13:37:16.691Z,17.60
2022-09-29T13:40:01.320Z,17.50
2022-09-29T13:42:37.464Z,17.30
2022-09-29T13:45:21.276Z,17.20
2022-09-29T13:47:54.440Z,17.10
2022-09-29T13:50:45.271Z,17.00
2022-09-29T13:53:22.054Z,16.80
2022-09-29T13:55:55.451Z,16.70
2022-09-29T13:58:32.480Z,16.50
2022-09-29T14:01:03.237Z,16.40
2022-09-29T14:03:47.629Z,16.30
2022-09-29T14:06:39.547Z,16.40
2022-09-29T14:09:12.430Z,16.30
2022-09-29T14:11:52.803Z,16.40
2022-09-29T14:14:32.282Z,16.50
2022-09-29T14:17:14.861Z,16.60
2022-09-29T14:19:56.486Z,17.10
2022-09-29T14:22:30.042Z,17.70
2022-09-29T14:25:12.308Z,18.10
2022-09-29T14:27:58.774Z,18.60
2022-09-29T14:30:32.622Z,19.00
2022-09-29T14:33:11.067Z,19.10
2022-09-29T14:36:01.787Z,19.70
2022-09-29T14:38:50.796Z,20.20
2022-09-29T14:41:32.209Z,20.40
2022-09-29T14:44:06.782Z,20.40
2022-09-29T14:47:21.969Z,20.90
2022-09-29T14:50:23.881Z,22.40
2022-09-29T14:53:13.413Z,23.90
2022-09-29T14:55:56.059Z,25.40
2022-09-29T14:58:29.713Z,26.30
2022-09-29T15:01:15.452Z,26.10
2022-09-29T15:03:47.363Z,25.60
2022-09-29T15:06:20.644Z,24.60
2022-09-29T15:08:57.707Z,23.70
2022-09-29T15:11:38.249Z,22.90
2022-09-29T15:14:26.039Z,22.20
2022-09-29T15:17:18.729Z,21.40
2022-09-29T15:20:08.158Z,21.00
2022-09-29T15:22:45.616Z,20.90
2022-09-29T15:25:29.855Z,21.60
2022-09-29T15:28:11.862Z,22.60
2022-09-29T15:30:39.972Z,23.50
2022-09-29T15:33:27.890Z,23.60
2022-09-29T15:36:02.863Z,22.50
2022-09-29T15:38:34.572Z,22.40
2022-09-29T15:41:13.571Z,21.70
2022-09-29T15:43:44.990Z,21.00
2022-09-29T15:46:25.736Z,20.30
2022-09-29T15:49:14.742Z,19.60
2022-09-29T15:51:45.362Z,18.90
2022-09-29T15:54:16.098Z,18.40
2022-09-29T15:57:05.138Z,17.90
2022-09-29T15:59:51.604Z,17.50
2022-09-29T16:02:30.553Z,17.10
2022-09-29T16:05:02.775Z,16.90
2022-09-29T16:07:36.255Z,16.90
2022-09-29T16:10:23.421Z,17.40
2022-09-29T16:12:57.874Z,18.20
2022-09-29T16:15:55.003Z,18.80
2022-09-29T16:18:26.393Z,19.10
2022-09-29T16:20:59.770Z,19.60
2022-09-29T16:23:36.952Z,20.20
2022-09-29T16:26:07.266Z,20.80
2022-09-29T16:28:41.026Z,21.30
2022-09-29T16:31:19.884Z,21.60
2022-09-29T16:33:54.879Z,21.80
2022-09-29T16:36:36.141Z,21.90
2022-09-29T16:39:04.607Z,22.20
2022-09-29T16:41:41.148Z,22.30
2022-09-29T16:44:17.584Z,22.20
2022-09-29T16:46:54.182Z,21.70
2022-09-29T16:49:28.955Z,21.00
2022-09-29T16:51:59.901Z,20.40
2022-09-29T16:54:31.169Z,19.70
2022-09-29T16:57:18.199Z,19.10
2022-09-29T16:59:46.453Z,18.50
2022-09-29T17:02:14.333Z,18.00
2022-09-29T17:04:42.136Z,17.60
2022-09-29T17:07:15.816Z,17.20
2022-09-29T17:09:56.340Z,16.90
2022-09-29T17:12:26.730Z,16.60
2022-09-29T17:14:54.396Z,16.40
2022-09-29T17:17:27.264Z,16.10
2022-09-29T17:19:56.561Z,16.00
2022-09-29T17:22:32.181Z,15.90
2022-09-29T17:25:00.437Z,15.90
2022-09-29T17:27:47.811Z,15.80
2022-09-29T17:30:22.904Z,15.70
2022-09-29T17:32:53.886Z,15.60
2022-09-29T17:35:25.378Z,15.50
2022-09-29T17:37:53.520Z,15.40
2022-09-29T17:40:50.059Z,15.30
2022-09-29T17:43:18.403Z,15.10
2022-09-29T17:45:46.670Z,15.00
2022-09-29T17:48:15.317Z,14.80
2022-09-29T17:50:50.881Z,14.70
2022-09-29T17:53:19.185Z,14.60
2022-09-29T17:55:51.956Z,14.40
2022-09-29T17:58:20.209Z,14.40
2022-09-29T18:00:50.272Z,14.20
2022-09-29T18:03:19.682Z,14.10
2022-09-29T18:05:56.389Z,14.00
2022-09-29T18:08:26.808Z,13.90
2022-09-29T18:10:59.452Z,13.90
2022-09-29T18:13:28.774Z,13.80
2022-09-29T18:15:58.063Z,13.70
2022-09-29T18:18:27.154Z,13.70
2022-09-29T18:20:54.836Z,13.70
2022-09-29T18:23:25.659Z,13.60
2022-09-29T18:25:53.715Z,13.60
2022-09-29T18:28:21.667Z,13.50
2022-09-29T18:30:53.968Z,13.50
2022-09-29T18:33:21.722Z,13.50
2022-09-29T18:35:54.137Z,13.50
2022-09-29T18:38:21.874Z,13.40
2022-09-29T18:40:55.466Z,13.40
2022-09-29T18:43:26.002Z,13.40
2022-09-29T18:45:55.672Z,13.20
2022-09-29T18:48:23.649Z,13.10
2022-09-29T18:50:52.706Z,13.00
2022-09-29T18:53:21.843Z,12.90
2022-09-29T18:55:51.468Z,12.80
2022-09-29T18:58:20.838Z,12.60
2022-09-29T19:00:51.211Z,12.50
2022-09-29T19:03:19.417Z,12.40
2022-09-29T19:05:47.975Z,12.40
2022-09-29T19:08:17.842Z,12.20
2022-09-29T19:10:51.857Z,12.00
2022-09-29T19:13:19.997Z,11.90
2022-09-29T19:15:48.208Z,11.80
2022-09-29T19:18:23.775Z,11.70
2022-09-29T19:20:54.487Z,11.70
2022-09-29T19:23:23.903Z,11.60
2022-09-29T19:25:53.757Z,11.50
2022-09-29T19:28:22.831Z,11.40
2022-09-29T19:30:50.722Z,11.30
2022-09-29T19:33:21.013Z,11.30
2022-09-29T19:35:54.574Z,11.20
2022-09-29T19:38:24.918Z,11.20
2022-09-29T19:40:52.961Z,11.00
2022-09-29T19:43:22.224Z,11.00
2022-09-29T19:45:50.501Z,10.90
2022-09-29T19:48:21.572Z,10.90
2022-09-29T19:51:15.299Z,10.80
2022-09-29T19:53:45.837Z,10.70
2022-09-29T19:56:17.183Z,10.60
2022-09-29T19:58:45.153Z,10.50
2022-09-29T20:01:12.991Z,10.50
2022-09-29T20:03:43.422Z,10.40
2022-09-29T20:06:11.145Z,10.40
2022-09-29T20:08:39.208Z,10.40
2022-09-29T20:11:10.943Z,10.40
2022-09-29T20:13:39.116Z,10.50
2022-09-29T20:16:07.177Z,10.40
2022-09-29T20:18:36.856Z,10.40
2022-09-29T20:21:09.176Z,10.40
2022-09-29T20:23:39.781Z,10.30
2022-09-29T20:26:11.156Z,10.30
2022-09-29T20:28:38.871Z,10.20
2022-09-29T20:31:07.736Z,10.10
2022-09-29T20:33:36.943Z,10.10
2022-09-29T20:36:05.463Z,10.10
2022-09-29T20:38:39.432Z,10.10
2022-09-29T20:41:08.427Z,10.10
2022-09-29T20:43:37.037Z,10.00
2022-09-29T20:46:07.172Z,9.90
2022-09-29T20:48:36.594Z,9.80
2022-09-29T20:51:05.453Z,9.80
2022-09-29T20:53:36.839Z,9.70
2022-09-29T20:56:11.417Z,9.60
2022-09-29T20:58:41.658Z,9.50
2022-09-29T21:01:18.132Z,9.40
2022-09-29T21:03:53.070Z,9.40
2022-09-29T21:06:35.205Z,9.30
2022-09-29T21:09:05.760Z,9.30
2022-09-29T21:11:38.313Z,9.30
2022-09-29T21:14:11.025Z,9.20
2022-09-29T21:16:42.905Z,9.10
2022-09-29T21:19:10.986Z,9.00
2022-09-29T21:21:41.073Z,9.00
2022-09-29T21:24:10.130Z,9.00
2022-09-29T21:26:39.524Z,9.00
2022-09-29T21:29:13.813Z,9.00
2022-09-29T21:31:41.497Z,9.00
2022-09-29T21:34:11.106Z,9.00
2022-09-29T21:36:38.818Z,9.00
2022-09-29T21:39:08.957Z,8.90
2022-09-29T21:41:39.171Z,8.90
2022-09-29T21:44:15.630Z,8.90
2022-09-29T21:46:44.469Z,8.80
2022-09-29T21:49:13.547Z,8.80
2022-09-29T21:51:44.818Z,8.70
2022-09-29T21:54:17.654Z,8.70
2022-09-29T21:56:46.782Z,8.70
2022-09-29T21:59:17.350Z,8.80
2022-09-29T22:01:45.947Z,8.70
2022-09-29T22:04:14.546Z,8.60
2022-09-29T22:06:45.000Z,8.50
2022-09-29T22:09:19.341Z,8.40
2022-09-29T22:11:50.034Z,8.30
2022-09-29T22:14:18.583Z,8.30
2022-09-29T22:16:46.277Z,8.30
2022-09-29T22:19:29.505Z,8.20
2022-09-29T22:21:57.174Z,8.20
2022-09-29T22:24:26.851Z,8.20
2022-09-29T22:26:54.968Z,8.20
2022-09-29T22:29:22.816Z,8.10
2022-09-29T22:31:50.607Z,8.10
2022-09-29T22:34:18.466Z,8.10
2022-09-29T22:36:46.017Z,8.00
2022-09-29T22:39:13.540Z,7.80
2022-09-29T22:41:41.189Z,7.80
2022-09-29T22:44:08.793Z,7.70
2022-09-29T22:46:36.559Z,7.70
2022-09-29T22:49:04.692Z,7.60
2022-09-29T22:51:33.220Z,7.60
2022-09-29T22:54:00.716Z,7.50
2022-09-29T22:56:29.191Z,7.50
2022-09-29T22:59:02.047Z,7.50
2022-09-29T23:01:29.886Z,7.50
2022-09-29T23:03:57.616Z,7.40
2022-09-29T23:06:25.353Z,7.40
2022-09-29T23:08:55.434Z,7.30
2022-09-29T23:11:23.614Z,7.30
2022-09-29T23:13:52.901Z,7.30
2022-09-29T23:16:20.706Z,7.30
2022-09-29T23:18:53.987Z,7.30
2022-09-29T23:21:22.931Z,7.20
2022-09-29T23:23:55.994Z,7.20
2022-09-29T23:26:25.458Z,7.20
2022-09-29T23:28:57.073Z,7.20
2022-09-29T23:31:24.711Z,7.10
2022-09-29T23:33:57.685Z,7.10
2022-09-29T23:36:27.463Z,7.10
2022-09-29T23:39:10.095Z,7.00
2022-09-29T23:41:40.416Z,7.00
2022-09-29T23:44:09.306Z,7.00
2022-09-29T23:46:38.528Z,7.00
2022-09-29T23:49:11.361Z,6.90
2022-09-29T23:51:43.824Z,6.90
2022-09-29T23:54:13.229Z,6.90
2022-09-29T23:56:40.874Z,6.90
2022-09-29T23:59:08.729Z,6.90
